Time;durP1;ratioP1;P1;durP2;ratioP2;P2;SDS_P1;SDS_P2;PMS_P1;PMS_P2;Temp;Humidity;BMP_temperature;BMP_pressure;BME280_temperature;BME280_humidity;BME280_pressure;Samples;Min_cycle;Max_cycle;Signal;HPM_P1;HPM_P2
2023/07/01 00:02:09;;;;;;;25.98;19.00;;;;;;;22.06;100.00;95769.78;5097574;27;20605;-83
2023/07/01 00:04:35;;;;;;;25.70;18.92;;;;;;;22.22;100.00;95770.88;5079496;27;20035;-83
2023/07/01 00:07:00;;;;;;;35.42;26.67;;;;;;;21.91;100.00;95773.03;5071850;28;20051;-84
2023/07/01 00:09:26;;;;;;;32.35;24.48;;;;;;;21.91;100.00;95767.69;5085015;27;20145;-83
2023/07/01 00:11:55;;;;;;;32.75;25.80;;;;;;;21.72;100.00;95775.09;5104782;28;20103;-83
2023/07/01 00:14:22;;;;;;;30.90;23.25;;;;;;;21.75;100.00;95769.28;5099707;28;20871;-83
2023/07/01 00:16:48;;;;;;;28.30;21.30;;;;;;;21.80;100.00;95763.22;5080452;28;20035;-83
2023/07/01 00:19:17;;;;;;;28.13;20.50;;;;;;;21.77;100.00;95774.41;5077304;28;20133;-82
2023/07/01 00:21:43;;;;;;;28.15;21.10;;;;;;;21.91;100.00;95774.91;5079994;28;20034;-83
2023/07/01 00:24:09;;;;;;;29.58;20.95;;;;;;;22.00;100.00;95770.75;5096756;27;20027;-83
2023/07/01 00:26:35;;;;;;;25.75;20.05;;;;;;;21.95;100.00;95773.34;5088795;27;20030;-82
2023/07/01 00:29:01;;;;;;;28.90;21.08;;;;;;;21.93;100.00;95762.91;5099513;27;20362;-82
2023/07/01 00:31:29;;;;;;;27.67;21.95;;;;;;;21.87;100.00;95764.69;5097080;27;20111;-82
2023/07/01 00:33:59;;;;;;;26.08;20.90;;;;;;;21.98;100.00;95770.19;5084020;28;20019;-82
2023/07/01 00:36:28;;;;;;;28.65;21.63;;;;;;;21.98;100.00;95754.13;5102932;27;20024;-83
2023/07/01 00:38:54;;;;;;;31.27;25.17;;;;;;;22.09;100.00;95761.28;5077847;27;20038;-83
2023/07/01 00:41:20;;;;;;;26.35;21.25;;;;;;;22.17;100.00;95760.09;5093247;27;20043;-83
2023/07/01 00:43:47;;;;;;;29.77;24.02;;;;;;;22.08;100.00;95762.34;5111634;28;20035;-84
2023/07/01 00:46:18;;;;;;;24.45;20.30;;;;;;;21.93;100.00;95762.06;5065708;27;20035;-83
2023/07/01 00:48:45;;;;;;;26.90;20.38;;;;;;;22.03;100.00;95757.72;5083569;28;20549;-83
2023/07/01 00:51:28;;;;;;;32.42;22.05;;;;;;;21.95;100.00;95760.78;5073959;28;20477;-83
2023/07/01 00:53:55;;;;;;;27.52;22.48;;;;;;;21.76;100.00;95754.81;5093952;28;20558;-83
2023/07/01 00:56:22;;;;;;;29.70;20.23;;;;;;;21.60;100.00;95759.13;5091293;28;20035;-83
2023/07/01 00:58:49;;;;;;;29.73;22.10;;;;;;;21.66;100.00;95765.34;5094286;28;20042;-83
2023/07/01 01:01:19;;;;;;;29.67;23.10;;;;;;;21.83;100.00;95760.03;5071210;28;20441;-83
2023/07/01 01:04:00;;;;;;;42.88;35.97;;;;;;;21.80;100.00;95764.03;5104186;28;20031;-84
2023/07/01 01:06:33;;;;;;;36.03;26.55;;;;;;;21.67;100.00;95767.00;5081674;28;20028;-83
2023/07/01 01:09:10;;;;;;;30.35;22.70;;;;;;;21.62;100.00;95766.88;5095702;28;20031;-83
2023/07/01 01:11:40;;;;;;;30.15;22.27;;;;;;;21.75;100.00;95771.13;5074592;28;20046;-83
2023/07/01 01:14:10;;;;;;;28.05;21.48;;;;;;;21.43;100.00;95760.94;5105235;27;20027;-83
2023/07/01 01:16:38;;;;;;;31.90;23.52;;;;;;;21.30;100.00;95764.69;5076818;27;20027;-83
2023/07/01 01:19:19;;;;;;;31.95;24.55;;;;;;;21.54;100.00;95759.25;5099216;28;20609;-81
2023/07/01 01:21:53;;;;;;;28.05;22.75;;;;;;;21.22;100.00;95764.22;5072080;28;20028;-81
2023/07/01 01:24:21;;;;;;;29.88;21.60;;;;;;;21.44;100.00;95764.44;5082255;27;20050;-81
2023/07/01 01:26:51;;;;;;;27.85;21.50;;;;;;;21.47;100.00;95759.41;5097417;27;20096;-81
2023/07/01 01:29:17;;;;;;;26.48;20.55;;;;;;;21.41;100.00;95766.53;5083254;27;20405;-81
2023/07/01 01:31:43;;;;;;;29.48;21.00;;;;;;;21.38;100.00;95764.31;5082695;28;20023;-81
2023/07/01 01:34:09;;;;;;;25.85;18.88;;;;;;;21.34;100.00;95760.50;5102590;27;20080;-80
2023/07/01 01:36:44;;;;;;;26.13;18.38;;;;;;;21.14;100.00;95765.44;5090042;27;20031;-80
2023/07/01 01:39:13;;;;;;;23.48;17.83;;;;;;;21.09;100.00;95760.78;5077924;28;20016;-81
2023/07/01 01:41:45;;;;;;;24.63;16.33;;;;;;;21.04;100.00;95757.19;5094626;27;20019;-81
2023/07/01 01:44:22;;;;;;;20.45;13.90;;;;;;;21.03;100.00;95759.06;5113992;27;20076;-81
2023/07/01 01:46:48;;;;;;;20.20;13.98;;;;;;;20.80;100.00;95759.91;5108514;27;20030;-81
2023/07/01 01:49:14;;;;;;;16.58;13.07;;;;;;;20.63;100.00;95753.69;5096116;27;20387;-81
2023/07/01 01:51:41;;;;;;;25.98;12.65;;;;;;;20.58;100.00;95756.22;5092560;27;20540;-80
2023/07/01 01:54:09;;;;;;;15.82;11.73;;;;;;;20.58;100.00;95756.22;5106119;28;20028;-81
2023/07/01 01:56:36;;;;;;;14.13;11.07;;;;;;;20.25;100.00;95758.44;5080681;27;20031;-80
2023/07/01 01:59:02;;;;;;;16.55;10.40;;;;;;;20.29;100.00;95752.59;5079385;27;20027;-81
2023/07/01 02:01:27;;;;;;;12.80;9.30;;;;;;;20.12;100.00;95758.66;5083319;28;20080;-80
2023/07/01 02:03:53;;;;;;;13.48;8.77;;;;;;;20.23;100.00;95757.84;5087753;28;20029;-80
2023/07/01 02:06:18;;;;;;;16.77;9.13;;;;;;;20.21;100.00;95754.56;5092960;27;20024;-80
2023/07/01 02:08:44;;;;;;;12.13;8.43;;;;;;;20.35;100.00;95749.81;5073125;28;20435;-80
2023/07/01 02:11:10;;;;;;;12.88;9.13;;;;;;;20.37;100.00;95744.25;5098260;28;20068;-80
2023/07/01 02:13:35;;;;;;;13.50;8.50;;;;;;;20.43;100.00;95752.16;5092993;27;20396;-80
2023/07/01 02:16:01;;;;;;;14.07;8.27;;;;;;;20.23;100.00;95746.34;5096927;28;20024;-81
2023/07/01 02:18:26;;;;;;;14.80;9.18;;;;;;;20.12;100.00;95739.13;5084549;27;20031;-80
2023/07/01 02:20:52;;;;;;;13.65;9.13;;;;;;;20.01;100.00;95744.22;5082732;27;20091;-80
2023/07/01 02:23:17;;;;;;;11.93;8.00;;;;;;;20.12;100.00;95741.78;5101957;28;20057;-80
2023/07/01 02:25:43;;;;;;;12.38;8.23;;;;;;;19.87;100.00;95745.47;5095662;28;20481;-81
2023/07/01 02:28:09;;;;;;;15.15;8.52;;;;;;;20.01;100.00;95740.75;5074578;28;20522;-80
2023/07/01 02:30:35;;;;;;;13.07;8.93;;;;;;;19.80;100.00;95744.78;5075493;28;20020;-80
2023/07/01 02:33:02;;;;;;;12.02;8.25;;;;;;;19.67;100.00;95750.31;5069443;28;20027;-81
2023/07/01 02:35:27;;;;;;;13.55;8.20;;;;;;;19.37;100.00;95748.44;5078892;27;20056;-81
2023/07/01 02:37:53;;;;;;;11.85;8.13;;;;;;;19.56;100.00;95749.22;5082186;28;20106;-80
2023/07/01 02:40:18;;;;;;;14.18;8.07;;;;;;;19.52;100.00;95748.84;5105157;27;20076;-80
2023/07/01 02:42:44;;;;;;;10.13;7.55;;;;;;;19.49;100.00;95751.16;5099108;28;20024;-80
2023/07/01 02:45:10;;;;;;;14.10;7.53;;;;;;;19.57;100.00;95755.34;5080401;28;20024;-80
2023/07/01 02:47:36;;;;;;;10.85;7.20;;;;;;;19.44;100.00;95754.50;5098565;27;20109;-80
2023/07/01 02:50:04;;;;;;;12.80;7.78;;;;;;;19.39;100.00;95758.91;5092015;28;20038;-80
2023/07/01 02:52:30;;;;;;;13.10;7.60;;;;;;;19.43;100.00;95750.19;5081454;28;20034;-80
2023/07/01 02:54:56;;;;;;;12.73;7.82;;;;;;;19.36;100.00;95756.69;5100022;27;20027;-80
2023/07/01 02:57:22;;;;;;;15.23;8.15;;;;;;;19.28;100.00;95755.13;5086909;27;20035;-80
2023/07/01 02:59:50;;;;;;;15.15;7.63;;;;;;;19.18;100.00;95750.34;5088837;27;20031;-80
2023/07/01 03:02:16;;;;;;;13.15;7.38;;;;;;;19.42;100.00;95761.91;5103739;27;20693;-80
2023/07/01 03:04:41;;;;;;;11.05;7.65;;;;;;;19.41;100.00;95751.47;5110291;27;20102;-80
2023/07/01 03:07:07;;;;;;;9.18;6.95;;;;;;;19.14;100.00;95746.47;5100252;28;20039;-80
2023/07/01 03:09:32;;;;;;;16.13;7.55;;;;;;;19.11;100.00;95748.78;5103387;27;20023;-80
2023/07/01 03:11:58;;;;;;;11.25;7.32;;;;;;;18.92;100.00;95743.50;5087294;27;20097;-80
2023/07/01 03:14:24;;;;;;;9.38;6.88;;;;;;;19.02;100.00;95745.63;5100004;27;20023;-80
2023/07/01 03:16:52;;;;;;;11.18;6.35;;;;;;;18.94;100.00;95748.59;5075023;28;20153;-79
2023/07/01 03:19:17;;;;;;;12.07;6.18;;;;;;;18.79;100.00;95748.97;5091244;28;20113;-80
2023/07/01 03:21:46;;;;;;;10.40;6.57;;;;;;;18.94;100.00;95749.38;5088287;28;20745;-80
2023/07/01 03:24:13;;;;;;;9.90;6.35;;;;;;;18.95;100.00;95752.91;5095527;28;20027;-80
2023/07/01 03:26:38;;;;;;;12.07;6.18;;;;;;;19.05;100.00;95748.66;5089258;27;20031;-79
2023/07/01 03:29:04;;;;;;;10.82;6.72;;;;;;;18.79;100.00;95743.66;5089015;28;20438;-79
2023/07/01 03:31:32;;;;;;;10.20;6.53;;;;;;;18.83;100.00;95750.16;5076142;27;20422;-80
2023/07/01 03:33:58;;;;;;;9.27;6.45;;;;;;;18.81;100.00;95749.53;5115625;27;20106;-79
2023/07/01 03:36:24;;;;;;;10.25;6.78;;;;;;;18.80;100.00;95750.59;5100866;27;20026;-80
2023/07/01 03:38:49;;;;;;;11.27;7.13;;;;;;;18.60;100.00;95748.91;5120404;27;20027;-80
2023/07/01 03:41:15;;;;;;;14.40;5.72;;;;;;;18.84;100.00;95749.09;5091238;27;20055;-80
2023/07/01 03:43:41;;;;;;;9.45;6.15;;;;;;;18.66;100.00;95739.25;5099810;27;20373;-80
2023/07/01 03:46:06;;;;;;;9.82;6.38;;;;;;;18.63;100.00;95750.34;5090622;28;20531;-80
2023/07/01 03:48:32;;;;;;;9.57;6.82;;;;;;;18.55;100.00;95745.31;5103742;27;20377;-80
2023/07/01 03:50:58;;;;;;;11.13;6.43;;;;;;;18.68;100.00;95742.50;5100309;28;20388;-80
2023/07/01 03:53:27;;;;;;;8.85;6.07;;;;;;;18.68;100.00;95744.34;5117320;27;20054;-79
2023/07/01 03:55:53;;;;;;;12.40;5.72;;;;;;;18.59;100.00;95747.31;5078187;28;20028;-80
2023/07/01 03:58:21;;;;;;;9.55;6.28;;;;;;;18.56;100.00;95753.06;5082118;27;20019;-80
2023/07/01 04:00:51;;;;;;;9.32;6.55;;;;;;;18.45;100.00;95748.47;5086482;28;20106;-80
2023/07/01 04:03:16;;;;;;;11.82;6.43;;;;;;;18.47;100.00;95751.72;5091080;27;20023;-80
2023/07/01 04:05:42;;;;;;;9.18;6.00;;;;;;;18.38;100.00;95753.06;5080857;28;20055;-80
2023/07/01 04:08:07;;;;;;;12.82;6.07;;;;;;;18.50;100.00;95759.28;5097205;28;20035;-81
2023/07/01 04:10:33;;;;;;;15.25;5.80;;;;;;;18.78;100.00;95753.50;5085498;27;20483;-80
2023/07/01 04:13:00;;;;;;;11.13;6.25;;;;;;;18.71;100.00;95757.22;5098774;28;20377;-81
2023/07/01 04:15:27;;;;;;;8.70;5.57;;;;;;;18.65;100.00;95750.13;5075454;28;20412;-79
2023/07/01 04:17:54;;;;;;;8.88;5.35;;;;;;;18.38;100.00;95759.19;5081104;28;20038;-80
2023/07/01 04:20:19;;;;;;;14.70;5.47;;;;;;;18.33;100.00;95750.22;5074007;28;20786;-80
2023/07/01 04:22:52;;;;;;;12.15;5.32;;;;;;;18.32;100.00;95754.75;5078949;27;20095;-80
2023/07/01 04:25:18;;;;;;;7.95;5.32;;;;;;;18.22;100.00;95758.94;5077375;28;20354;-82
2023/07/01 04:27:43;;;;;;;10.82;5.40;;;;;;;18.37;100.00;95752.22;5090647;28;20023;-79
2023/07/01 04:30:11;;;;;;;9.85;6.15;;;;;;;18.49;100.00;95755.00;5091758;28;20027;-80
2023/07/01 04:32:37;;;;;;;8.40;4.85;;;;;;;18.35;100.00;95753.50;5098740;28;20028;-80
2023/07/01 04:35:03;;;;;;;8.95;5.22;;;;;;;18.38;100.00;95750.41;5109321;27;20030;-80
2023/07/01 04:37:29;;;;;;;7.63;5.07;;;;;;;18.74;100.00;95746.94;5100281;27;20504;-80
2023/07/01 04:39:54;;;;;;;9.50;5.03;;;;;;;18.30;100.00;95753.31;5096718;28;20036;-80
2023/07/01 04:42:20;;;;;;;9.85;4.95;;;;;;;18.36;100.00;95739.97;5101295;28;20027;-79
2023/07/01 04:44:53;;;;;;;8.23;4.97;;;;;;;18.69;100.00;95745.97;5105872;28;20027;-79
2023/07/01 04:47:23;;;;;;;7.90;4.97;;;;;;;18.77;100.00;95745.69;5107814;27;20434;-79
2023/07/01 04:49:52;;;;;;;9.93;5.22;;;;;;;18.64;100.00;95751.16;5075794;28;20023;-79
2023/07/01 04:52:24;;;;;;;7.40;4.78;;;;;;;18.82;100.00;95743.19;5095882;28;20031;-80
2023/07/01 04:54:51;;;;;;;9.18;4.55;;;;;;;18.83;100.00;95745.63;5124406;28;20019;-79
2023/07/01 04:57:17;;;;;;;9.77;4.55;;;;;;;18.79;100.00;95744.44;5088005;28;20424;-79
2023/07/01 04:59:47;;;;;;;8.30;5.05;;;;;;;19.10;100.00;95739.16;5074286;28;20066;-80
2023/07/01 05:02:12;;;;;;;9.77;4.93;;;;;;;19.10;100.00;95739.16;5074517;28;20420;-80
2023/07/01 05:04:38;;;;;;;8.50;4.80;;;;;;;19.19;100.00;95737.84;5097364;28;20027;-81
2023/07/01 05:07:04;;;;;;;10.77;6.00;;;;;;;18.63;100.00;95744.19;5082860;28;20015;-80
2023/07/01 05:09:30;;;;;;;10.45;5.35;;;;;;;19.01;100.00;95738.66;5085659;28;20096;-80
2023/07/01 05:11:56;;;;;;;9.93;5.55;;;;;;;18.87;100.00;95740.66;5107515;28;20031;-79
2023/07/01 05:14:21;;;;;;;7.25;4.97;;;;;;;19.21;100.00;95746.41;5101232;28;20042;-80
2023/07/01 05:16:47;;;;;;;8.65;5.63;;;;;;;19.48;100.00;95750.34;5102210;28;20055;-80
2023/07/01 05:19:12;;;;;;;6.38;4.65;;;;;;;19.82;100.00;95750.72;5080585;28;20031;-80
2023/07/01 05:21:47;;;;;;;8.50;5.40;;;;;;;19.68;100.00;95749.25;5090276;28;20047;-80
2023/07/01 05:24:13;;;;;;;8.38;5.43;;;;;;;19.61;100.00;95757.31;5084308;28;20493;-81
2023/07/01 05:26:39;;;;;;;10.38;5.82;;;;;;;19.99;100.00;95749.00;5103044;28;20035;-80
2023/07/01 05:29:04;;;;;;;7.70;5.18;;;;;;;20.15;100.00;95744.00;5097766;28;20073;-80
2023/07/01 05:31:30;;;;;;;8.43;4.80;;;;;;;20.20;100.00;95744.13;5089995;28;20028;-80
2023/07/01 05:33:55;;;;;;;10.55;5.22;;;;;;;20.35;100.00;95749.81;5080019;28;20092;-79
2023/07/01 05:36:21;;;;;;;7.57;5.00;;;;;;;20.69;100.00;95755.38;5079141;28;20027;-81
2023/07/01 05:38:46;;;;;;;8.25;5.10;;;;;;;20.64;100.00;95747.28;5073388;28;20032;-80
2023/07/01 05:41:12;;;;;;;7.28;5.13;;;;;;;20.64;100.00;95741.94;5079710;28;20023;-80
2023/07/01 05:43:37;;;;;;;12.35;5.38;;;;;;;21.21;100.00;95734.00;5092979;28;20498;-80
2023/07/01 05:46:03;;;;;;;7.13;4.50;;;;;;;20.92;100.00;95744.69;5116855;28;20024;-80
2023/07/01 05:48:41;;;;;;;6.63;4.30;;;;;;;20.90;100.00;95738.75;5099948;28;20019;-80
2023/07/01 05:51:06;;;;;;;7.93;4.80;;;;;;;20.93;100.00;95732.94;5089327;28;20023;-80
2023/07/01 05:53:32;;;;;;;9.18;4.57;;;;;;;21.70;100.00;95734.41;5104146;28;20046;-80
2023/07/01 05:55:57;;;;;;;9.85;5.05;;;;;;;21.59;100.00;95735.25;5076515;28;20038;-81
2023/07/01 05:58:23;;;;;;;7.13;4.28;;;;;;;21.44;100.00;95737.69;5079001;28;20032;-80
2023/07/01 06:00:49;;;;;;;7.10;4.55;;;;;;;22.15;100.00;95730.03;5103148;28;20027;-81
2023/07/01 06:03:14;;;;;;;10.55;4.32;;;;;;;22.29;100.00;95726.00;5087786;27;20114;-80
2023/07/01 06:05:40;;;;;;;8.20;4.45;;;;;;;22.19;100.00;95728.50;5092279;28;20034;-81
2023/07/01 06:08:05;;;;;;;8.48;4.10;;;;;;;22.31;100.00;95732.72;5112414;28;20113;-81
2023/07/01 06:10:31;;;;;;;7.22;4.25;;;;;;;22.56;100.00;95726.09;5110010;27;20027;-81
2023/07/01 06:12:56;;;;;;;7.85;4.10;;;;;;;22.76;100.00;95730.94;5091455;27;20078;-82
2023/07/01 06:15:22;;;;;;;7.45;3.67;;;;;;;23.06;100.00;95725.16;5087759;27;20020;-80
2023/07/01 06:17:48;;;;;;;6.82;3.80;;;;;;;22.94;100.00;95727.19;5118905;27;20145;-82
2023/07/01 06:20:13;;;;;;;5.55;3.63;;;;;;;22.93;100.00;95729.03;5081675;28;20685;-81
2023/07/01 06:22:39;;;;;;;7.32;3.97;;;;;;;22.55;100.00;95725.31;5093044;28;20505;-81
2023/07/01 06:25:05;;;;;;;6.38;3.47;;;;;;;22.57;100.00;95727.75;5121713;27;20031;-80
2023/07/01 06:27:30;;;;;;;6.47;4.05;;;;;;;22.79;100.00;95723.19;5088755;27;20027;-80
2023/07/01 06:29:56;;;;;;;5.88;3.50;;;;;;;22.99;100.00;95733.41;5096361;28;20039;-80
2023/07/01 06:32:21;;;;;;;5.70;3.35;;;;;;;23.12;100.00;95721.50;5100081;27;20019;-81
2023/07/01 06:34:47;;;;;;;5.30;2.85;;;;;;;22.99;100.00;95727.22;5131355;27;20473;-81
2023/07/01 06:37:13;;;;;;;6.20;3.20;;;;;;;23.70;100.00;95728.00;5081504;27;20389;-81
2023/07/01 06:39:39;;;;;;;5.93;2.92;;;;;;;24.11;100.00;95730.25;5088190;27;20107;-81
2023/07/01 06:42:13;;;;;;;6.72;3.10;;;;;;;24.12;100.00;95730.00;5098198;28;20689;-81
2023/07/01 06:44:39;;;;;;;7.03;2.67;;;;;;;24.25;100.00;95725.25;5107007;27;20034;-81
2023/07/01 06:47:05;;;;;;;6.80;2.83;;;;;;;24.25;100.00;95727.94;5097500;28;20089;-81
2023/07/01 06:49:34;;;;;;;6.00;2.80;;;;;;;24.21;100.00;95722.25;5084698;27;20035;-81
2023/07/01 06:52:07;;;;;;;7.07;2.85;;;;;;;24.50;100.00;95717.38;5092979;28;20066;-81
2023/07/01 06:54:33;;;;;;;4.88;2.78;;;;;;;24.97;100.00;95713.84;5084839;27;20058;-80
2023/07/01 06:56:58;;;;;;;6.03;2.65;;;;;;;25.49;100.00;95712.97;5090030;27;20031;-81
2023/07/01 06:59:24;;;;;;;4.82;2.63;;;;;;;25.90;100.00;95715.75;5094227;28;20028;-81
2023/07/01 07:01:50;;;;;;;7.00;2.38;;;;;;;25.00;100.00;95713.31;5107249;27;20051;-81
2023/07/01 07:04:16;;;;;;;4.43;1.95;;;;;;;26.03;100.00;95706.31;5112689;27;20046;-82
2023/07/01 07:06:49;;;;;;;4.82;2.28;;;;;;;26.24;100.00;95704.41;5082487;28;20110;-81
2023/07/01 07:09:15;;;;;;;5.15;2.38;;;;;;;25.22;100.00;95709.66;5119952;27;20015;-82
2023/07/01 07:11:41;;;;;;;6.32;2.40;;;;;;;26.14;100.00;95709.81;5122709;27;20023;-82
2023/07/01 07:14:07;;;;;;;5.00;2.30;;;;;;;26.40;100.00;95708.72;5100830;28;20031;-81
2023/07/01 07:16:35;;;;;;;6.22;2.10;;;;;;;26.10;100.00;95702.28;5089321;27;20019;-81
2023/07/01 07:19:01;;;;;;;3.88;2.25;;;;;;;25.83;100.00;95699.03;5110197;27;20027;-81
2023/07/01 07:21:26;;;;;;;5.57;2.30;;;;;;;26.53;99.48;95701.97;5075882;28;20015;-81
2023/07/01 07:23:52;;;;;;;6.57;2.47;;;;;;;26.69;98.45;95700.03;5079474;27;20435;-81
2023/07/01 07:26:18;;;;;;;4.53;2.17;;;;;;;26.88;95.06;95695.66;5088517;27;20028;-81
2023/07/01 07:28:47;;;;;;;7.28;2.10;;;;;;;26.22;94.43;95695.78;5097183;28;20056;-81
2023/07/01 07:31:15;;;;;;;6.00;2.22;;;;;;;27.35;90.73;95694.38;5095061;27;20546;-81
2023/07/01 07:33:40;;;;;;;5.55;2.42;;;;;;;27.44;87.71;95697.31;5085102;27;20571;-81
2023/07/01 07:36:06;;;;;;;4.53;1.92;;;;;;;27.02;84.28;95690.47;5098576;28;20020;-82
2023/07/01 07:38:32;;;;;;;4.65;1.98;;;;;;;28.19;78.19;95681.63;5090587;28;20019;-81
2023/07/01 07:40:57;;;;;;;3.72;1.80;;;;;;;27.98;78.08;95687.50;5071225;28;20043;-80
2023/07/01 07:43:23;;;;;;;11.98;2.50;;;;;;;28.62;73.39;95675.56;5087229;27;20023;-81
2023/07/01 07:45:48;;;;;;;5.85;2.30;;;;;;;27.93;80.61;95686.47;5099332;27;20023;-81
2023/07/01 07:48:14;;;;;;;3.33;1.75;;;;;;;28.03;70.50;95687.44;5086278;27;21038;-81
2023/07/01 07:50:40;;;;;;;2.85;1.70;;;;;;;27.76;73.86;95686.03;5087051;28;20019;-81
2023/07/01 07:53:05;;;;;;;6.80;1.80;;;;;;;28.38;68.28;95686.34;5109921;28;20525;-81
2023/07/01 07:55:34;;;;;;;4.85;1.85;;;;;;;29.07;62.21;95679.63;5103721;27;20023;-83
2023/07/01 07:58:01;;;;;;;4.53;2.20;;;;;;;28.98;65.63;95678.66;5081312;28;20027;-83
2023/07/01 08:00:27;;;;;;;5.95;2.00;;;;;;;29.22;68.22;95673.22;5088932;28;20216;-82
2023/07/01 08:02:52;;;;;;;4.45;1.95;;;;;;;28.99;64.73;95674.84;5100367;28;20503;-83
2023/07/01 08:05:18;;;;;;;5.63;2.00;;;;;;;28.76;63.16;95672.97;5083758;27;20031;-82
2023/07/01 08:07:45;;;;;;;6.40;1.67;;;;;;;29.06;66.77;95669.91;5102842;27;20389;-82
2023/07/01 08:10:11;;;;;;;5.57;1.67;;;;;;;29.64;62.83;95663.44;5085182;27;20051;-82
2023/07/01 08:12:38;;;;;;;5.78;2.10;;;;;;;29.84;57.65;95662.31;5100773;27;20077;-82
2023/07/01 08:15:04;;;;;;;4.22;1.73;;;;;;;30.29;56.17;95657.25;5099908;27;20026;-82
2023/07/01 08:17:29;;;;;;;6.78;2.05;;;;;;;30.46;53.46;95659.41;5113108;27;20062;-81
2023/07/01 08:19:55;;;;;;;5.13;1.70;;;;;;;30.47;53.62;95650.13;5096939;28;20066;-81
2023/07/01 08:22:21;;;;;;;5.85;2.17;;;;;;;29.92;58.39;95663.56;5075273;28;20030;-82
2023/07/01 08:24:48;;;;;;;6.47;1.98;;;;;;;30.56;52.69;95655.69;5074337;28;20448;-82
2023/07/01 08:27:16;;;;;;;6.57;1.65;;;;;;;30.72;51.38;95644.22;5100938;28;20118;-82
2023/07/01 08:29:41;;;;;;;6.05;1.92;;;;;;;29.77;51.92;95649.13;5096018;28;20031;-82
2023/07/01 08:32:07;;;;;;;5.43;2.50;;;;;;;29.62;53.41;95654.81;5090041;28;20023;-82
2023/07/01 08:34:35;;;;;;;3.58;1.80;;;;;;;30.83;51.10;95644.06;5095174;27;20393;-83
2023/07/01 08:37:02;;;;;;;5.93;1.85;;;;;;;29.86;53.94;95648.47;5114472;27;20030;-82
2023/07/01 08:39:28;;;;;;;6.93;1.98;;;;;;;30.19;54.18;95650.09;5077839;28;20035;-82
2023/07/01 08:42:08;;;;;;;2.92;2.00;;;;;;;29.59;54.89;95644.53;5079043;28;20019;-83
2023/07/01 08:44:40;;;;;;;5.82;2.35;;;;;;;29.22;55.62;95650.78;5102443;28;20023;-82
2023/07/01 08:47:06;;;;;;;5.97;1.88;;;;;;;29.13;57.02;95645.19;5091823;28;20067;-82
2023/07/01 08:49:34;;;;;;;3.33;1.73;;;;;;;29.76;56.88;95646.75;5086650;28;20027;-84
2023/07/01 08:52:17;;;;;;;3.53;1.88;;;;;;;30.45;50.98;95638.78;5091767;28;20039;-82
2023/07/01 08:54:44;;;;;;;3.13;1.52;;;;;;;29.26;53.40;95640.97;5082139;28;20046;-81
2023/07/01 08:57:10;;;;;;;4.65;1.80;;;;;;;28.54;55.44;95643.72;5075284;28;20023;-80
2023/07/01 08:59:36;;;;;;;3.83;1.88;;;;;;;29.53;53.42;95630.25;5071529;28;20082;-81
2023/07/01 09:02:02;;;;;;;5.53;1.90;;;;;;;29.29;54.74;95632.25;5096725;28;20792;-81
2023/07/01 09:04:30;;;;;;;6.70;2.45;;;;;;;29.31;54.86;95635.44;5099407;28;20109;-82
2023/07/01 09:06:56;;;;;;;7.38;2.42;;;;;;;28.68;56.01;95633.84;5073488;28;20023;-82
2023/07/01 09:09:21;;;;;;;8.82;3.10;;;;;;;29.21;56.95;95624.75;5083045;28;20026;-82
2023/07/01 09:11:47;;;;;;;3.28;1.88;;;;;;;28.84;54.78;95635.25;5090569;28;20392;-82
2023/07/01 09:14:18;;;;;;;4.22;1.80;;;;;;;28.89;53.81;95628.97;5054457;28;20086;-82
2023/07/01 09:16:43;;;;;;;3.42;1.60;;;;;;;29.40;53.67;95628.28;5098286;28;20428;-82
2023/07/01 09:19:14;;;;;;;5.60;2.55;;;;;;;29.28;55.95;95619.81;5080995;28;20052;-83
2023/07/01 09:21:40;;;;;;;3.63;2.15;;;;;;;30.04;55.09;95623.22;5090162;28;20080;-82
2023/07/01 09:24:08;;;;;;;3.03;1.73;;;;;;;29.61;52.66;95612.53;5091611;28;20125;-82
2023/07/01 09:26:33;;;;;;;8.23;2.45;;;;;;;30.41;50.18;95613.34;5104163;28;20015;-83
2023/07/01 09:29:08;;;;;;;5.25;2.10;;;;;;;28.90;54.67;95617.03;5095913;28;20020;-83
2023/07/01 09:31:52;;;;;;;4.82;2.00;;;;;;;28.50;56.53;95613.72;5086176;28;20031;-83
2023/07/01 09:34:21;;;;;;;3.67;2.00;;;;;;;27.97;59.59;95619.16;5103308;27;20103;-84
2023/07/01 09:36:47;;;;;;;3.83;2.00;;;;;;;28.22;61.48;95609.97;5129961;27;20024;-84
2023/07/01 09:39:29;;;;;;;6.72;2.10;;;;;;;28.16;58.95;95608.41;5111224;27;20492;-84
2023/07/01 09:42:03;;;;;;;6.50;2.33;;;;;;;27.53;62.35;95611.09;5093800;27;20035;-83
2023/07/01 09:44:30;;;;;;;2.92;1.80;;;;;;;28.55;57.91;95602.06;5102940;27;20039;-84
2023/07/01 09:46:55;;;;;;;3.90;2.00;;;;;;;29.51;51.39;95601.84;5085846;28;20030;-84
2023/07/01 09:49:36;;;;;;;9.15;2.20;;;;;;;29.35;52.80;95602.09;5090498;27;20015;-84
2023/07/01 09:52:03;;;;;;;5.40;2.30;;;;;;;28.77;51.76;95596.94;5090142;28;20043;-84
2023/07/01 09:54:30;;;;;;;6.10;2.20;;;;;;;30.27;48.43;95584.31;5106330;27;20039;-83
2023/07/01 09:56:58;;;;;;;3.42;1.70;;;;;;;29.67;50.24;95592.41;5089818;28;20032;-85
2023/07/01 09:59:27;;;;;;;5.97;2.42;;;;;;;29.13;49.94;95589.13;5103530;27;20030;-84
2023/07/01 10:01:57;;;;;;;5.68;2.75;;;;;;;28.59;54.21;95581.44;5121030;27;20023;-84
2023/07/01 10:04:33;;;;;;;5.75;2.10;;;;;;;28.86;49.22;95583.53;5083509;28;20027;-84
2023/07/01 10:06:58;;;;;;;6.85;2.45;;;;;;;28.32;55.76;95577.41;5122691;27;20034;-85
2023/07/01 10:09:26;;;;;;;5.63;2.17;;;;;;;28.59;55.87;95589.56;5101678;27;20024;-83
2023/07/01 10:11:54;;;;;;;5.45;2.15;;;;;;;30.25;50.37;95577.59;5091729;27;20051;-85
2023/07/01 10:14:25;;;;;;;7.00;2.10;;;;;;;29.35;47.80;95585.03;5079333;27;20024;-84
2023/07/01 10:16:51;;;;;;;6.35;2.60;;;;;;;29.40;48.43;95581.44;5111171;28;20029;-84
2023/07/01 10:19:34;;;;;;;5.72;2.20;;;;;;;29.86;48.75;95580.72;5114587;27;20020;-84
2023/07/01 10:22:18;;;;;;;5.68;2.35;;;;;;;29.00;48.98;95572.81;5100433;28;20028;-85
2023/07/01 10:24:44;;;;;;;7.47;2.28;;;;;;;29.15;48.04;95574.50;5113719;28;20354;-84
2023/07/01 10:27:09;;;;;;;5.82;2.22;;;;;;;29.03;49.93;95575.75;5093297;28;20045;-84
2023/07/01 10:29:59;;;;;;;6.85;2.53;;;;;;;29.63;46.33;95563.50;5088267;27;20104;-85
2023/07/01 10:32:27;;;;;;;4.22;2.35;;;;;;;29.21;47.98;95563.31;5104011;27;20039;-77
2023/07/01 10:34:53;;;;;;;4.38;2.10;;;;;;;29.80;46.82;95559.09;5084362;28;20058;-78
2023/07/01 10:37:25;;;;;;;6.07;2.50;;;;;;;30.58;46.81;95556.56;5073752;28;20114;-83
2023/07/01 10:39:52;;;;;;;5.80;2.33;;;;;;;29.99;45.78;95542.00;5098810;28;20070;-86
2023/07/01 10:42:31;;;;;;;9.23;2.60;;;;;;;29.20;47.71;95548.16;5072311;27;20391;-86
2023/07/01 10:45:12;;;;;;;6.68;2.33;;;;;;;28.78;45.83;95544.41;5093196;27;20480;-88
2023/07/01 10:47:43;;;;;;;6.30;2.03;;;;;;;29.75;46.61;95537.53;5093875;27;20328;-87
2023/07/01 10:50:16;;;;;;;6.10;2.60;;;;;;;28.90;48.06;95547.47;5105308;28;20360;-90
2023/07/01 10:52:57;;;;;;;4.22;2.40;;;;;;;30.64;42.89;95533.66;5106108;28;20020;-92
2023/07/01 10:55:39;;;;;;;5.45;2.53;;;;;;;29.67;43.86;95518.44;5099449;27;20489;-87
2023/07/01 10:58:23;;;;;;;4.18;2.20;;;;;;;30.32;41.98;95522.94;5083186;28;20027;-87
2023/07/01 11:00:52;;;;;;;8.68;6.57;;;;;;;30.15;43.53;95523.50;5090824;28;20038;-82
2023/07/01 11:03:33;;;;;;;10.43;4.38;;;;;;;30.39;42.40;95518.72;5094937;27;20028;-75
2023/07/01 11:06:00;;;;;;;5.63;2.17;;;;;;;30.39;44.14;95512.50;5122223;27;20034;-75
2023/07/01 11:08:48;;;;;;;6.43;3.78;;;;;;;31.20;40.51;95512.63;5100593;27;20027;-88
2023/07/01 11:11:34;;;;;;;4.20;2.55;;;;;;;31.23;39.55;95506.56;5105425;27;20130;-87
2023/07/01 11:14:09;;;;;;;4.15;2.40;;;;;;;30.40;38.57;95500.53;5083527;28;20427;-87
2023/07/01 11:16:42;;;;;;;6.43;2.85;;;;;;;30.87;38.34;95499.25;5091548;27;20687;-91
2023/07/01 11:19:09;;;;;;;6.82;2.42;;;;;;;29.42;40.36;95508.81;5082337;28;20059;-92
2023/07/01 11:21:36;;;;;;;4.00;2.05;;;;;;;29.75;38.64;95496.88;5103988;28;20031;-89
2023/07/01 11:24:05;;;;;;;4.03;1.95;;;;;;;28.79;41.47;95502.72;5113041;28;20027;-89
2023/07/01 11:26:36;;;;;;;4.05;2.20;;;;;;;29.48;42.31;95491.38;5091146;27;20046;-89
2023/07/01 11:29:07;;;;;;;3.97;1.92;;;;;;;30.09;38.97;95501.13;5106739;27;20064;-89